createdAt,value
2018-07-14T00:01:26.409Z,96059.00
2018-07-14T00:03:57.967Z,96063.00
2018-07-14T00:06:28.610Z,96064.00
2018-07-14T00:08:58.926Z,96064.00
2018-07-14T00:11:29.513Z,96057.00
2018-07-14T00:13:59.809Z,96066.00
2018-07-14T00:16:30.052Z,96052.00
2018-07-14T00:19:00.379Z,96047.00
2018-07-14T00:21:30.745Z,96054.00
2018-07-14T00:24:01.023Z,96055.00
2018-07-14T00:26:31.370Z,96057.00
2018-07-14T00:29:01.660Z,96054.00
2018-07-14T00:31:31.997Z,96053.00
2018-07-14T00:34:02.530Z,96055.00
2018-07-14T00:36:32.976Z,96049.00
2018-07-14T00:39:03.492Z,96051.00
2018-07-14T00:41:33.934Z,96055.00
2018-07-14T00:44:04.455Z,96052.00
2018-07-14T00:46:35.247Z,96057.00
2018-07-14T00:49:06.109Z,96057.00
2018-07-14T00:51:36.918Z,96056.00
2018-07-14T00:54:07.415Z,96048.00
2018-07-14T00:56:37.910Z,96047.00
2018-07-14T00:59:08.443Z,96046.00
2018-07-14T01:01:38.875Z,96049.00
2018-07-14T01:04:09.527Z,96040.00
2018-07-14T01:06:40.093Z,96045.00
2018-07-14T01:09:10.734Z,96056.00
2018-07-14T01:11:41.180Z,96043.00
2018-07-14T01:14:11.631Z,96039.00
2018-07-14T01:16:42.037Z,96041.00
2018-07-14T01:19:12.327Z,96042.00
2018-07-14T01:21:42.739Z,96045.00
2018-07-14T01:24:12.978Z,96040.00
2018-07-14T01:26:45.193Z,96040.00
2018-07-14T01:29:15.764Z,96049.00
2018-07-14T01:31:47.684Z,96045.00
2018-07-14T01:34:17.922Z,96044.00
2018-07-14T01:36:55.267Z,96040.00
2018-07-14T01:39:25.963Z,96040.00
2018-07-14T01:41:56.624Z,96037.00
2018-07-14T01:44:27.031Z,96028.00
2018-07-14T01:46:57.574Z,96032.00
2018-07-14T01:49:28.343Z,96032.00
2018-07-14T01:51:59.029Z,96027.00
2018-07-14T01:54:29.379Z,96031.00
2018-07-14T01:57:00.176Z,96029.00
2018-07-14T01:59:30.517Z,96035.00
2018-07-14T02:02:00.982Z,96027.00
2018-07-14T02:04:32.959Z,96030.00
2018-07-14T02:07:06.746Z,96027.00
2018-07-14T02:09:37.912Z,96028.00
2018-07-14T02:12:10.076Z,96026.00
2018-07-14T02:14:40.320Z,96031.00
2018-07-14T02:17:10.574Z,96027.00
2018-07-14T02:19:41.216Z,96022.00
2018-07-14T02:23:14.717Z,96027.00
2018-07-14T02:25:45.131Z,96031.00
2018-07-14T02:28:15.410Z,96017.00
2018-07-14T02:30:45.710Z,96016.00
2018-07-14T02:33:15.986Z,96013.00
2018-07-14T02:35:46.332Z,96016.00
2018-07-14T02:38:16.618Z,96018.00
2018-07-14T02:40:46.798Z,96023.00
2018-07-14T02:43:17.023Z,96028.00
2018-07-14T02:45:47.479Z,96029.00
2018-07-14T02:48:17.806Z,96034.00
2018-07-14T02:50:48.023Z,96032.00
2018-07-14T02:53:18.339Z,96033.00
2018-07-14T02:55:48.878Z,96039.00
2018-07-14T02:58:19.484Z,96040.00
2018-07-14T03:00:49.894Z,96040.00
2018-07-14T03:03:20.637Z,96046.00
2018-07-14T03:05:51.159Z,96045.00
2018-07-14T03:08:21.450Z,96040.00
2018-07-14T03:10:51.905Z,96054.00
2018-07-14T03:13:22.227Z,96050.00
2018-07-14T03:15:52.487Z,96049.00
2018-07-14T03:18:22.679Z,96050.00
2018-07-14T03:20:52.891Z,96047.00
2018-07-14T03:23:27.279Z,96046.00
2018-07-14T03:25:57.753Z,96042.00
2018-07-14T03:28:28.051Z,96038.00
2018-07-14T03:30:59.517Z,96036.00
2018-07-14T03:33:29.737Z,96024.00
2018-07-14T03:36:00.103Z,96025.00
2018-07-14T03:38:30.374Z,96023.00
2018-07-14T03:41:00.661Z,96025.00
2018-07-14T03:43:31.004Z,96020.00
2018-07-14T03:46:01.286Z,96024.00
2018-07-14T03:48:31.526Z,96019.00
2018-07-14T03:51:01.829Z,96032.00
2018-07-14T03:53:32.103Z,96023.00
2018-07-14T03:56:02.539Z,96041.00
2018-07-14T03:58:32.803Z,96036.00
2018-07-14T04:01:03.100Z,96030.00
2018-07-14T04:03:34.459Z,96025.00
2018-07-14T04:06:06.239Z,96024.00
2018-07-14T04:08:36.867Z,96024.00
2018-07-14T04:11:07.167Z,96020.00
2018-07-14T04:13:37.318Z,96021.00
2018-07-14T04:16:07.770Z,96019.00
2018-07-14T04:18:38.134Z,96021.00
2018-07-14T04:21:08.183Z,96020.00
2018-07-14T04:23:38.282Z,96016.00
2018-07-14T04:26:08.504Z,96017.00
2018-07-14T04:28:39.223Z,96011.00
2018-07-14T04:31:09.174Z,96009.00
2018-07-14T04:33:39.568Z,96008.00
2018-07-14T04:36:09.786Z,96024.00
2018-07-14T04:38:40.147Z,96011.00
2018-07-14T04:41:10.350Z,96021.00
2018-07-14T04:43:40.850Z,96019.00
2018-07-14T04:46:11.069Z,96021.00
2018-07-14T04:48:41.507Z,96022.00
2018-07-14T04:51:12.320Z,96028.00
2018-07-14T04:53:42.803Z,96036.00
2018-07-14T04:56:13.002Z,96031.00
2018-07-14T04:58:43.367Z,96033.00
2018-07-14T05:01:13.569Z,96033.00
2018-07-14T05:03:44.110Z,96041.00
2018-07-14T05:06:14.298Z,96047.00
2018-07-14T05:08:44.570Z,96036.00
2018-07-14T05:11:14.776Z,96031.00
2018-07-14T05:13:45.015Z,96042.00
2018-07-14T05:16:15.213Z,96032.00
2018-07-14T05:18:45.434Z,96041.00
2018-07-14T05:21:15.668Z,96035.00
2018-07-14T05:23:46.062Z,96033.00
2018-07-14T05:26:16.266Z,96028.00
2018-07-14T05:28:46.239Z,96028.00
2018-07-14T05:31:16.447Z,96030.00
2018-07-14T05:33:46.694Z,96026.00
2018-07-14T05:36:16.951Z,96028.00
2018-07-14T05:38:47.197Z,96019.00
2018-07-14T05:41:17.436Z,96019.00
2018-07-14T05:43:47.751Z,96025.00
2018-07-14T05:46:18.060Z,96022.00
2018-07-14T05:48:48.418Z,96027.00
2018-07-14T05:51:18.728Z,96025.00
2018-07-14T05:53:49.001Z,96026.00
2018-07-14T05:56:19.326Z,96028.00
2018-07-14T05:58:49.721Z,96025.00
2018-07-14T06:01:20.174Z,96025.00
2018-07-14T06:03:50.662Z,96023.00
2018-07-14T06:06:21.139Z,96022.00
2018-07-14T06:08:51.739Z,96029.00
2018-07-14T06:11:22.026Z,96028.00
2018-07-14T06:13:52.239Z,96027.00
2018-07-14T06:16:22.627Z,96022.00
2018-07-14T06:18:52.867Z,96024.00
2018-07-14T06:21:23.192Z,96022.00
2018-07-14T06:23:53.484Z,96025.00
2018-07-14T06:26:23.737Z,96025.00
2018-07-14T06:28:54.152Z,96026.00
2018-07-14T06:31:24.419Z,96027.00
2018-07-14T06:33:54.626Z,96032.00
2018-07-14T06:36:24.838Z,96031.00
2018-07-14T06:38:55.060Z,96024.00
2018-07-14T06:41:25.343Z,96024.00
2018-07-14T06:43:56.083Z,96028.00
2018-07-14T06:46:26.886Z,96032.00
2018-07-14T06:48:57.139Z,96017.00
2018-07-14T06:51:28.305Z,96023.00
2018-07-14T06:53:58.652Z,96028.00
2018-07-14T06:56:29.496Z,96030.00
2018-07-14T06:59:00.559Z,96031.00
2018-07-14T07:01:30.939Z,96038.00
2018-07-14T07:04:03.351Z,96034.00
2018-07-14T07:06:35.656Z,96040.00
2018-07-14T07:09:07.345Z,96046.00
2018-07-14T07:11:37.707Z,96044.00
2018-07-14T07:14:13.311Z,96044.00
2018-07-14T07:16:45.654Z,96048.00
2018-07-14T07:19:16.043Z,96052.00
2018-07-14T07:21:46.591Z,96046.00
2018-07-14T07:24:16.936Z,96049.00
2018-07-14T07:26:47.876Z,96037.00
2018-07-14T07:29:20.569Z,96040.00
2018-07-14T07:31:53.166Z,96040.00
2018-07-14T07:34:24.035Z,96046.00
2018-07-14T07:36:56.470Z,96044.00
2018-07-14T07:39:27.150Z,96045.00
2018-07-14T07:41:57.938Z,96043.00
2018-07-14T07:44:28.217Z,96041.00
2018-07-14T07:46:58.808Z,96040.00
2018-07-14T07:49:29.059Z,96043.00
2018-07-14T07:52:04.091Z,96040.00
2018-07-14T07:54:34.855Z,96033.00
2018-07-14T07:57:06.280Z,96033.00
2018-07-14T07:59:37.928Z,96030.00
2018-07-14T08:02:09.018Z,96037.00
2018-07-14T08:04:40.409Z,96030.00
2018-07-14T08:07:11.653Z,96034.00
2018-07-14T08:10:48.289Z,96034.00
2018-07-14T08:13:19.430Z,96032.00
2018-07-14T08:15:49.953Z,96029.00
2018-07-14T08:18:28.392Z,96029.00
2018-07-14T08:20:59.353Z,96028.00
2018-07-14T08:23:31.348Z,96030.00
2018-07-14T08:26:01.587Z,96029.00
2018-07-14T08:28:33.017Z,96031.00
2018-07-14T08:31:09.418Z,96027.00
2018-07-14T08:33:40.509Z,96023.00
2018-07-14T08:36:10.942Z,96023.00
2018-07-14T08:38:41.235Z,96022.00
2018-07-14T08:41:11.698Z,96028.00
2018-07-14T08:43:42.884Z,96029.00
2018-07-14T08:46:13.174Z,96030.00
2018-07-14T08:48:46.125Z,96025.00
2018-07-14T08:51:17.007Z,96021.00
2018-07-14T08:53:47.247Z,96025.00
2018-07-14T08:56:17.683Z,96029.00
2018-07-14T08:58:48.246Z,96024.00
2018-07-14T09:01:18.388Z,96027.00
2018-07-14T09:03:50.538Z,96020.00
2018-07-14T09:06:21.305Z,96025.00
2018-07-14T09:08:51.646Z,96031.00
2018-07-14T09:11:21.922Z,96030.00
2018-07-14T09:13:52.686Z,96028.00
2018-07-14T09:16:23.299Z,96055.00
2018-07-14T09:18:53.557Z,96041.00
2018-07-14T09:21:24.428Z,96040.00
2018-07-14T09:23:54.670Z,96047.00
2018-07-14T09:26:24.928Z,96057.00
2018-07-14T09:28:55.453Z,96065.00
2018-07-14T09:31:25.835Z,96068.00
2018-07-14T09:33:56.319Z,96075.00
2018-07-14T09:36:26.538Z,96085.00
2018-07-14T09:38:56.832Z,96096.00
2018-07-14T09:41:27.121Z,96111.00
2018-07-14T09:43:57.414Z,96108.00
2018-07-14T09:46:27.663Z,96110.00
2018-07-14T09:48:57.940Z,96124.00
2018-07-14T09:51:28.174Z,96114.00
2018-07-14T09:53:59.277Z,96104.00
2018-07-14T09:56:29.538Z,96104.00
2018-07-14T09:58:59.859Z,96093.00
2018-07-14T10:01:30.147Z,96091.00
2018-07-14T10:04:00.391Z,96066.00
2018-07-14T10:06:30.918Z,96053.00
2018-07-14T10:09:01.403Z,96051.00
2018-07-14T10:11:31.626Z,96055.00
2018-07-14T10:14:01.847Z,96050.00
2018-07-14T10:16:32.127Z,96046.00
2018-07-14T10:19:02.551Z,96040.00
2018-07-14T10:21:32.812Z,96043.00
2018-07-14T10:24:03.090Z,96051.00
2018-07-14T10:26:33.289Z,96053.00
2018-07-14T10:29:03.637Z,96049.00
2018-07-14T10:31:33.841Z,96040.00
2018-07-14T10:34:04.228Z,96030.00
2018-07-14T10:36:34.851Z,96033.00
2018-07-14T10:39:06.207Z,96039.00
2018-07-14T10:41:36.703Z,96027.00
2018-07-14T10:44:08.949Z,96029.00
2018-07-14T10:46:40.525Z,96032.00
2018-07-14T10:49:10.808Z,96037.00
2018-07-14T10:51:41.064Z,96029.00
2018-07-14T10:54:12.312Z,96027.00
2018-07-14T10:56:42.635Z,96025.00
2018-07-14T10:59:13.018Z,96020.00
2018-07-14T11:01:43.778Z,96025.00
2018-07-14T11:04:14.246Z,96041.00
2018-07-14T11:06:44.687Z,96049.00
2018-07-14T11:09:17.050Z,96053.00
2018-07-14T11:11:50.276Z,96052.00
2018-07-14T11:14:21.218Z,96046.00
2018-07-14T11:16:51.595Z,96052.00
2018-07-14T11:19:21.875Z,96053.00
2018-07-14T11:21:52.113Z,96052.00
2018-07-14T11:24:22.450Z,96052.00
2018-07-14T11:26:52.707Z,96046.00
2018-07-14T11:29:23.016Z,96038.00
2018-07-14T11:31:53.270Z,96030.00
2018-07-14T11:34:30.272Z,96036.00
2018-07-14T11:37:03.640Z,96029.00
2018-07-14T11:39:35.647Z,96018.00
2018-07-14T11:42:06.374Z,96020.00
2018-07-14T11:44:36.769Z,96014.00
2018-07-14T11:47:07.379Z,96020.00
2018-07-14T11:49:37.748Z,96016.00
2018-07-14T11:52:08.255Z,96006.00
2018-07-14T11:54:38.530Z,96007.00
2018-07-14T11:57:10.428Z,96003.00
2018-07-14T11:59:42.054Z,96008.00
2018-07-14T12:02:12.551Z,95994.00
2018-07-14T12:04:42.558Z,95996.00
2018-07-14T12:07:12.769Z,95998.00
2018-07-14T12:09:43.218Z,95984.00
2018-07-14T12:12:14.688Z,95986.00
2018-07-14T12:14:45.512Z,95990.00
2018-07-14T12:17:18.111Z,95988.00
2018-07-14T12:19:49.018Z,95982.00
2018-07-14T12:22:19.933Z,95976.00
2018-07-14T12:24:50.645Z,95966.00
2018-07-14T12:27:22.201Z,95965.00
2018-07-14T12:29:55.486Z,95966.00
2018-07-14T12:35:11.364Z,95959.00
2018-07-14T12:37:41.627Z,95962.00
2018-07-14T12:40:11.991Z,95956.00
2018-07-14T12:42:43.775Z,95963.00
2018-07-14T12:45:39.915Z,95957.00
2018-07-14T12:48:23.953Z,95960.00
2018-07-14T12:51:06.930Z,95954.00
2018-07-14T12:53:47.241Z,95957.00
2018-07-14T12:56:32.518Z,95957.00
2018-07-14T12:59:07.487Z,95950.00
2018-07-14T13:01:45.381Z,95955.00
2018-07-14T13:04:23.875Z,95955.00
2018-07-14T13:06:57.818Z,95956.00
2018-07-14T13:09:43.815Z,95946.00
2018-07-14T13:12:18.989Z,95942.00
2018-07-14T13:15:09.049Z,95941.00
2018-07-14T13:17:55.103Z,95942.00
2018-07-14T13:20:37.873Z,95943.00
2018-07-14T13:28:03.586Z,95941.00
2018-07-14T13:30:34.266Z,95934.00
2018-07-14T13:33:04.854Z,95933.00
2018-07-14T13:35:35.845Z,95936.00
2018-07-14T13:38:22.273Z,95945.00
2018-07-14T13:40:52.563Z,95941.00
2018-07-14T13:43:23.058Z,95936.00
2018-07-14T13:45:54.406Z,95934.00
2018-07-14T13:48:31.337Z,95932.00
2018-07-14T13:51:01.618Z,95928.00
2018-07-14T13:53:42.183Z,95930.00
2018-07-14T13:56:12.849Z,95920.00
2018-07-14T13:58:43.067Z,95911.00
2018-07-14T14:01:13.451Z,95918.00
2018-07-14T14:03:43.735Z,95910.00
2018-07-14T14:06:14.635Z,95902.00
2018-07-14T14:08:44.930Z,95899.00
2018-07-14T14:11:15.722Z,95902.00
2018-07-14T14:13:46.027Z,95898.00
2018-07-14T14:16:23.488Z,95901.00
2018-07-14T14:18:54.458Z,95903.00
2018-07-14T14:21:25.267Z,95899.00
2018-07-14T14:23:55.802Z,95897.00
2018-07-14T14:26:27.660Z,95894.00
2018-07-14T14:28:58.050Z,95893.00
2018-07-14T14:31:29.044Z,95889.00
2018-07-14T14:33:59.477Z,95897.00
2018-07-14T14:36:31.012Z,95892.00
2018-07-14T14:39:01.834Z,95889.00
2018-07-14T14:41:34.077Z,95887.00
2018-07-14T14:44:04.850Z,95880.00
2018-07-14T14:46:35.199Z,95891.00
2018-07-14T14:49:05.865Z,95898.00
2018-07-14T14:51:36.158Z,95888.00
2018-07-14T14:54:06.550Z,95882.00
2018-07-14T14:56:37.142Z,95894.00
2018-07-14T14:59:08.566Z,95891.00
2018-07-14T15:01:40.294Z,95895.00
2018-07-14T15:04:11.126Z,95890.00
2018-07-14T15:06:41.510Z,95888.00
2018-07-14T15:09:11.793Z,95886.00
2018-07-14T15:11:43.103Z,95891.00
2018-07-14T15:14:13.325Z,95878.00
2018-07-14T15:16:43.826Z,95878.00
2018-07-14T15:19:14.059Z,95873.00
2018-07-14T15:21:44.480Z,95872.00
2018-07-14T15:24:14.969Z,95865.00
2018-07-14T15:26:45.648Z,95864.00
2018-07-14T15:29:16.033Z,95862.00
2018-07-14T15:31:46.654Z,95863.00
2018-07-14T15:34:17.403Z,95860.00
2018-07-14T15:36:48.389Z,95863.00
2018-07-14T15:39:19.618Z,95864.00
2018-07-14T15:41:50.209Z,95864.00
2018-07-14T15:44:21.597Z,95868.00
2018-07-14T15:46:54.189Z,95857.00
2018-07-14T15:49:24.683Z,95855.00
2018-07-14T15:51:57.594Z,95852.00
2018-07-14T15:54:29.683Z,95851.00
2018-07-14T15:57:00.377Z,95847.00
2018-07-14T15:59:31.779Z,95841.00
2018-07-14T16:02:06.632Z,95846.00
2018-07-14T16:04:38.307Z,95849.00
2018-07-14T16:07:09.108Z,95837.00
2018-07-14T16:09:39.314Z,95840.00
2018-07-14T16:12:09.782Z,95844.00
2018-07-14T16:14:40.463Z,95839.00
2018-07-14T16:17:11.946Z,95834.00
2018-07-14T16:19:42.806Z,95847.00
2018-07-14T16:22:13.612Z,95838.00
2018-07-14T16:24:43.977Z,95831.00
2018-07-14T16:27:14.483Z,95831.00
2018-07-14T16:29:44.738Z,95837.00
2018-07-14T16:32:15.136Z,95838.00
2018-07-14T16:34:46.372Z,95842.00
2018-07-14T16:37:17.093Z,95839.00
2018-07-14T16:39:47.279Z,95841.00
2018-07-14T16:42:17.532Z,95837.00
2018-07-14T16:44:47.994Z,95840.00
2018-07-14T16:47:18.751Z,95840.00
2018-07-14T16:49:49.294Z,95842.00
2018-07-14T16:52:25.397Z,95841.00
2018-07-14T16:55:02.294Z,95840.00
2018-07-14T16:57:32.610Z,95842.00
2018-07-14T17:00:03.021Z,95842.00
2018-07-14T17:02:33.341Z,95833.00
2018-07-14T17:05:03.627Z,95836.00
2018-07-14T17:07:33.935Z,95828.00
2018-07-14T17:10:04.232Z,95828.00
2018-07-14T17:12:34.883Z,95840.00
2018-07-14T17:15:05.586Z,95830.00
2018-07-14T17:17:36.467Z,95838.00
2018-07-14T17:20:07.799Z,95835.00
2018-07-14T17:22:41.496Z,95833.00
2018-07-14T17:25:12.875Z,95829.00
2018-07-14T17:27:43.559Z,95833.00
2018-07-14T17:30:15.009Z,95833.00
2018-07-14T17:32:45.324Z,95834.00
2018-07-14T17:35:16.273Z,95839.00
2018-07-14T17:37:52.147Z,95832.00
2018-07-14T17:40:25.264Z,95834.00
2018-07-14T17:42:55.936Z,95830.00
2018-07-14T17:45:26.406Z,95830.00
2018-07-14T17:47:57.826Z,95752.00
2018-07-14T17:50:28.103Z,95833.00
2018-07-14T17:52:58.466Z,95827.00
2018-07-14T17:55:28.753Z,95824.00
2018-07-14T17:57:59.158Z,95827.00
2018-07-14T18:00:29.398Z,95830.00
2018-07-14T18:02:59.718Z,95830.00
2018-07-14T18:05:30.102Z,95819.00
2018-07-14T18:08:00.407Z,95817.00
2018-07-14T18:10:30.730Z,95814.00
2018-07-14T18:13:01.019Z,95814.00
2018-07-14T18:15:31.284Z,95817.00
2018-07-14T18:18:01.629Z,95813.00
2018-07-14T18:20:31.940Z,95808.00
2018-07-14T18:23:02.194Z,95816.00
2018-07-14T18:25:32.579Z,95816.00
2018-07-14T18:28:02.826Z,95812.00
2018-07-14T18:30:33.380Z,95815.00
2018-07-14T18:33:03.692Z,95811.00
2018-07-14T18:35:33.934Z,95817.00
2018-07-14T18:38:04.140Z,95813.00
2018-07-14T18:40:34.916Z,95810.00
2018-07-14T18:43:05.444Z,95808.00
2018-07-14T18:45:35.819Z,95816.00
2018-07-14T18:48:06.463Z,95825.00
2018-07-14T18:50:36.902Z,95827.00
2018-07-14T18:53:07.829Z,95832.00
2018-07-14T18:55:38.246Z,95822.00
2018-07-14T18:58:08.570Z,95833.00
2018-07-14T19:00:39.054Z,95829.00
2018-07-14T19:03:09.551Z,95826.00
2018-07-14T19:05:39.923Z,95831.00
2018-07-14T19:08:10.374Z,95829.00
2018-07-14T19:10:40.724Z,95851.00
2018-07-14T19:13:11.503Z,95828.00
2018-07-14T19:15:42.237Z,95840.00
2018-07-14T19:18:12.501Z,95830.00
2018-07-14T19:20:42.999Z,95839.00
2018-07-14T19:23:13.271Z,95841.00
2018-07-14T19:25:43.674Z,95843.00
2018-07-14T19:28:13.995Z,95845.00
2018-07-14T19:30:45.688Z,95873.00
2018-07-14T19:33:17.089Z,95847.00
2018-07-14T19:35:47.891Z,95852.00
2018-07-14T19:38:18.748Z,95850.00
2018-07-14T19:40:50.440Z,95855.00
2018-07-14T19:43:21.340Z,95861.00
2018-07-14T19:45:53.258Z,95867.00
2018-07-14T19:48:25.913Z,95867.00
2018-07-14T19:50:56.626Z,95864.00
2018-07-14T19:53:27.271Z,95862.00
2018-07-14T19:56:00.691Z,95865.00
2018-07-14T19:58:31.256Z,95864.00
2018-07-14T20:01:01.939Z,95867.00
2018-07-14T20:03:42.296Z,95865.00
2018-07-14T20:06:14.347Z,95868.00
2018-07-14T20:08:44.607Z,95872.00
2018-07-14T20:11:14.906Z,95875.00
2018-07-14T20:13:45.170Z,95881.00
2018-07-14T20:16:15.570Z,96117.00
2018-07-14T20:18:45.826Z,95870.00
2018-07-14T20:21:16.070Z,95873.00
2018-07-14T20:23:46.394Z,95873.00
2018-07-14T20:26:16.757Z,95880.00
2018-07-14T20:28:47.035Z,95876.00
2018-07-14T20:31:23.263Z,95885.00
2018-07-14T20:33:53.594Z,95882.00
2018-07-14T20:36:23.822Z,95886.00
2018-07-14T20:38:54.153Z,95884.00
2018-07-14T20:41:24.569Z,95881.00
2018-07-14T20:43:54.808Z,95882.00
2018-07-14T20:46:25.128Z,95885.00
2018-07-14T20:48:55.315Z,95880.00
2018-07-14T20:51:25.330Z,95875.00
2018-07-14T20:53:55.500Z,95875.00
2018-07-14T20:56:25.750Z,95884.00
2018-07-14T20:58:56.098Z,95875.00
2018-07-14T21:01:26.402Z,95881.00
2018-07-14T21:03:56.606Z,95875.00
2018-07-14T21:06:26.903Z,95898.00
2018-07-14T21:08:57.283Z,95871.00
2018-07-14T21:11:27.556Z,95874.00
2018-07-14T21:13:57.832Z,95877.00
2018-07-14T21:16:28.112Z,95877.00
2018-07-14T21:18:58.282Z,95880.00
2018-07-14T21:21:28.677Z,95885.00
2018-07-14T21:23:58.920Z,95877.00
2018-07-14T21:26:29.183Z,95888.00
2018-07-14T21:28:59.514Z,95884.00
2018-07-14T21:31:29.891Z,95882.00
2018-07-14T21:34:00.404Z,95881.00
2018-07-14T21:36:30.676Z,95885.00
2018-07-14T21:39:00.891Z,95882.00
2018-07-14T21:41:31.181Z,95892.00
2018-07-14T21:44:01.571Z,95885.00
2018-07-14T21:46:31.838Z,95884.00
2018-07-14T21:49:02.079Z,95886.00
2018-07-14T21:51:32.567Z,95888.00
2018-07-14T21:54:03.184Z,95887.00
2018-07-14T21:56:34.079Z,95887.00
2018-07-14T21:59:05.150Z,95885.00
2018-07-14T22:01:41.455Z,95886.00
2018-07-14T22:04:14.011Z,95892.00
2018-07-14T22:07:27.707Z,95885.00
2018-07-14T22:10:06.735Z,95881.00
2018-07-14T22:12:47.905Z,95885.00
2018-07-14T22:15:20.994Z,95884.00
2018-07-14T22:17:56.450Z,95888.00
2018-07-14T22:20:41.114Z,95888.00
2018-07-14T22:23:12.846Z,95886.00
2018-07-14T22:25:52.071Z,95890.00
2018-07-14T22:28:25.739Z,95885.00
2018-07-14T22:30:57.639Z,95885.00
2018-07-14T22:33:36.868Z,95874.00
2018-07-14T22:36:07.802Z,95880.00
2018-07-14T22:38:39.048Z,95876.00
2018-07-14T22:41:10.082Z,95883.00
2018-07-14T22:43:40.995Z,95882.00
2018-07-14T22:46:12.017Z,95879.00
2018-07-14T22:48:43.528Z,95890.00
2018-07-14T22:51:14.440Z,95891.00
2018-07-14T22:53:45.526Z,95888.00
2018-07-14T22:56:18.542Z,95885.00
2018-07-14T22:58:50.133Z,95885.00
2018-07-14T23:01:21.315Z,95890.00
2018-07-14T23:03:53.585Z,95888.00
2018-07-14T23:06:24.380Z,95884.00
2018-07-14T23:08:56.968Z,95885.00
2018-07-14T23:11:28.556Z,95886.00
2018-07-14T23:13:59.910Z,95886.00
2018-07-14T23:16:30.550Z,95882.00
2018-07-14T23:19:00.811Z,95881.00
2018-07-14T23:21:31.140Z,95888.00
2018-07-14T23:24:01.435Z,95876.00
2018-07-14T23:26:31.646Z,95882.00
2018-07-14T23:29:01.999Z,95876.00
2018-07-14T23:31:32.546Z,95882.00
2018-07-14T23:34:02.759Z,95890.00
2018-07-14T23:36:33.123Z,95879.00
2018-07-14T23:39:04.843Z,95883.00
2018-07-14T23:41:35.496Z,95884.00
2018-07-14T23:44:06.119Z,95879.00
2018-07-14T23:46:36.602Z,95879.00
2018-07-14T23:49:07.149Z,95877.00
2018-07-14T23:51:37.584Z,95871.00
2018-07-14T23:54:07.859Z,95870.00
2018-07-14T23:56:38.126Z,95865.00
2018-07-14T23:59:08.300Z,95858.00
